sensor_id;sensor_type;location;lat;lon;timestamp;temperature;humidity
59881;DHT22;45751;51.380;10.326;2024-02-28T00:01:52;4.10;99.90
59881;DHT22;45751;51.380;10.326;2024-02-28T00:04:18;4.00;99.90
59881;DHT22;45751;51.380;10.326;2024-02-28T00:06:44;4.00;99.90
59881;DHT22;45751;51.380;10.326;2024-02-28T00:09:12;4.00;99.90
59881;DHT22;45751;51.380;10.326;2024-02-28T00:11:43;4.00;99.90
59881;DHT22;45751;51.380;10.326;2024-02-28T00:14:10;4.10;99.90
59881;DHT22;45751;51.380;10.326;2024-02-28T00:16:36;4.10;99.90
59881;DHT22;45751;51.380;10.326;2024-02-28T00:19:02;4.10;99.90
59881;DHT22;45751;51.380;10.326;2024-02-28T00:21:28;4.10;99.90
59881;DHT22;45751;51.380;10.326;2024-02-28T00:23:53;4.10;99.90
59881;DHT22;45751;51.380;10.326;2024-02-28T00:26:19;4.20;99.90
59881;DHT22;45751;51.380;10.326;2024-02-28T00:28:45;4.10;99.90
59881;DHT22;45751;51.380;10.326;2024-02-28T00:31:10;4.10;99.90
59881;DHT22;45751;51.380;10.326;2024-02-28T00:33:36;4.10;99.90
59881;DHT22;45751;51.380;10.326;2024-02-28T00:36:02;4.00;99.90
59881;DHT22;45751;51.380;10.326;2024-02-28T00:38:28;4.00;99.90
59881;DHT22;45751;51.380;10.326;2024-02-28T00:40:54;4.00;99.90
59881;DHT22;45751;51.380;10.326;2024-02-28T00:43:19;3.90;99.90
59881;DHT22;45751;51.380;10.326;2024-02-28T00:45:45;3.90;99.90
59881;DHT22;45751;51.380;10.326;2024-02-28T00:48:11;3.90;99.90
59881;DHT22;45751;51.380;10.326;2024-02-28T00:50:37;3.80;99.90
59881;DHT22;45751;51.380;10.326;2024-02-28T00:53:02;3.80;99.90
59881;DHT22;45751;51.380;10.326;2024-02-28T00:55:28;3.80;99.90
59881;DHT22;45751;51.380;10.326;2024-02-28T00:57:54;3.80;99.90
59881;DHT22;45751;51.380;10.326;2024-02-28T01:00:20;3.80;99.90
59881;DHT22;45751;51.380;10.326;2024-02-28T01:02:45;3.80;99.90
59881;DHT22;45751;51.380;10.326;2024-02-28T01:05:11;3.70;99.90
59881;DHT22;45751;51.380;10.326;2024-02-28T01:07:37;3.70;99.90
59881;DHT22;45751;51.380;10.326;2024-02-28T01:10:03;3.70;99.90
59881;DHT22;45751;51.380;10.326;2024-02-28T01:12:29;3.70;99.90
59881;DHT22;45751;51.380;10.326;2024-02-28T01:14:55;3.70;99.90
59881;DHT22;45751;51.380;10.326;2024-02-28T01:17:21;3.70;99.90
59881;DHT22;45751;51.380;10.326;2024-02-28T01:19:47;3.70;99.90
59881;DHT22;45751;51.380;10.326;2024-02-28T01:22:13;3.70;99.90
59881;DHT22;45751;51.380;10.326;2024-02-28T01:24:38;3.60;99.90
59881;DHT22;45751;51.380;10.326;2024-02-28T01:27:04;3.60;99.90
59881;DHT22;45751;51.380;10.326;2024-02-28T01:29:30;3.60;99.90
59881;DHT22;45751;51.380;10.326;2024-02-28T01:31:56;3.70;99.90
59881;DHT22;45751;51.380;10.326;2024-02-28T01:34:21;3.60;99.90
59881;DHT22;45751;51.380;10.326;2024-02-28T01:36:47;3.60;99.90
59881;DHT22;45751;51.380;10.326;2024-02-28T01:39:13;3.60;99.90
59881;DHT22;45751;51.380;10.326;2024-02-28T01:41:39;3.60;99.90
59881;DHT22;45751;51.380;10.326;2024-02-28T01:44:05;3.60;99.90
59881;DHT22;45751;51.380;10.326;2024-02-28T01:46:31;3.50;99.90
59881;DHT22;45751;51.380;10.326;2024-02-28T01:48:58;3.50;99.90
59881;DHT22;45751;51.380;10.326;2024-02-28T01:51:26;3.50;99.90
59881;DHT22;45751;51.380;10.326;2024-02-28T01:53:55;3.40;99.90
59881;DHT22;45751;51.380;10.326;2024-02-28T01:56:23;3.30;99.90
59881;DHT22;45751;51.380;10.326;2024-02-28T01:58:49;3.30;99.90
59881;DHT22;45751;51.380;10.326;2024-02-28T02:01:16;3.30;99.90
59881;DHT22;45751;51.380;10.326;2024-02-28T02:03:47;3.30;99.90
59881;DHT22;45751;51.380;10.326;2024-02-28T02:06:14;3.20;99.90
59881;DHT22;45751;51.380;10.326;2024-02-28T02:08:40;3.20;99.90
59881;DHT22;45751;51.380;10.326;2024-02-28T02:11:06;3.20;99.90
59881;DHT22;45751;51.380;10.326;2024-02-28T02:13:32;3.10;99.90
59881;DHT22;45751;51.380;10.326;2024-02-28T02:15:58;3.10;99.90
59881;DHT22;45751;51.380;10.326;2024-02-28T02:18:24;3.00;99.90
59881;DHT22;45751;51.380;10.326;2024-02-28T02:21:02;3.10;99.90
59881;DHT22;45751;51.380;10.326;2024-02-28T02:23:30;3.10;99.90
59881;DHT22;45751;51.380;10.326;2024-02-28T02:25:56;3.10;99.90
59881;DHT22;45751;51.380;10.326;2024-02-28T02:28:22;3.00;99.90
59881;DHT22;45751;51.380;10.326;2024-02-28T02:30:48;3.00;99.90
59881;DHT22;45751;51.380;10.326;2024-02-28T02:33:14;3.00;99.90
59881;DHT22;45751;51.380;10.326;2024-02-28T02:35:39;2.90;99.90
59881;DHT22;45751;51.380;10.326;2024-02-28T02:38:05;3.00;99.90
59881;DHT22;45751;51.380;10.326;2024-02-28T02:40:31;2.90;99.90
59881;DHT22;45751;51.380;10.326;2024-02-28T02:42:57;2.90;99.90
59881;DHT22;45751;51.380;10.326;2024-02-28T02:45:22;3.00;99.90
59881;DHT22;45751;51.380;10.326;2024-02-28T02:47:48;2.90;99.90
59881;DHT22;45751;51.380;10.326;2024-02-28T02:50:14;2.90;99.90
59881;DHT22;45751;51.380;10.326;2024-02-28T02:52:40;2.90;99.90
59881;DHT22;45751;51.380;10.326;2024-02-28T02:55:06;2.90;99.90
59881;DHT22;45751;51.380;10.326;2024-02-28T02:57:33;2.90;99.90
59881;DHT22;45751;51.380;10.326;2024-02-28T02:59:59;2.90;99.90
59881;DHT22;45751;51.380;10.326;2024-02-28T03:02:24;2.90;99.90
59881;DHT22;45751;51.380;10.326;2024-02-28T03:04:50;2.90;99.90
59881;DHT22;45751;51.380;10.326;2024-02-28T03:07:16;2.90;99.90
59881;DHT22;45751;51.380;10.326;2024-02-28T03:09:42;2.90;99.90
59881;DHT22;45751;51.380;10.326;2024-02-28T03:12:07;2.90;99.90
59881;DHT22;45751;51.380;10.326;2024-02-28T03:14:35;2.90;99.90
59881;DHT22;45751;51.380;10.326;2024-02-28T03:17:01;2.80;99.90
59881;DHT22;45751;51.380;10.326;2024-02-28T03:19:27;2.90;99.90
59881;DHT22;45751;51.380;10.326;2024-02-28T03:21:53;2.80;99.90
59881;DHT22;45751;51.380;10.326;2024-02-28T03:24:19;2.80;99.90
59881;DHT22;45751;51.380;10.326;2024-02-28T03:26:44;2.80;99.90
59881;DHT22;45751;51.380;10.326;2024-02-28T03:29:10;2.70;99.90
59881;DHT22;45751;51.380;10.326;2024-02-28T03:31:36;2.70;99.90
59881;DHT22;45751;51.380;10.326;2024-02-28T03:34:02;2.70;99.90
59881;DHT22;45751;51.380;10.326;2024-02-28T03:36:28;2.70;99.90
59881;DHT22;45751;51.380;10.326;2024-02-28T03:38:54;2.70;99.90
59881;DHT22;45751;51.380;10.326;2024-02-28T03:41:20;2.70;99.90
59881;DHT22;45751;51.380;10.326;2024-02-28T03:43:46;2.70;99.90
59881;DHT22;45751;51.380;10.326;2024-02-28T03:46:11;2.70;99.90
59881;DHT22;45751;51.380;10.326;2024-02-28T03:48:37;2.60;99.90
59881;DHT22;45751;51.380;10.326;2024-02-28T03:51:03;2.60;99.90
59881;DHT22;45751;51.380;10.326;2024-02-28T03:53:29;2.50;99.90
59881;DHT22;45751;51.380;10.326;2024-02-28T03:55:55;2.60;99.90
59881;DHT22;45751;51.380;10.326;2024-02-28T03:58:21;2.40;99.90
59881;DHT22;45751;51.380;10.326;2024-02-28T04:00:47;2.50;99.90
59881;DHT22;45751;51.380;10.326;2024-02-28T04:03:13;2.40;99.90
59881;DHT22;45751;51.380;10.326;2024-02-28T04:05:40;2.40;99.90
59881;DHT22;45751;51.380;10.326;2024-02-28T04:08:06;2.40;99.90
59881;DHT22;45751;51.380;10.326;2024-02-28T04:10:31;2.30;99.90
59881;DHT22;45751;51.380;10.326;2024-02-28T04:12:57;2.20;99.90
59881;DHT22;45751;51.380;10.326;2024-02-28T04:15:23;2.30;99.90
59881;DHT22;45751;51.380;10.326;2024-02-28T04:17:51;2.30;99.90
59881;DHT22;45751;51.380;10.326;2024-02-28T04:20:17;2.30;99.90
59881;DHT22;45751;51.380;10.326;2024-02-28T04:22:43;2.30;99.90
59881;DHT22;45751;51.380;10.326;2024-02-28T04:25:09;2.20;99.90
59881;DHT22;45751;51.380;10.326;2024-02-28T04:27:36;2.20;99.90
59881;DHT22;45751;51.380;10.326;2024-02-28T04:30:01;2.20;99.90
59881;DHT22;45751;51.380;10.326;2024-02-28T04:32:27;2.30;99.90
59881;DHT22;45751;51.380;10.326;2024-02-28T04:34:53;2.10;99.90
59881;DHT22;45751;51.380;10.326;2024-02-28T04:37:19;2.20;99.90
59881;DHT22;45751;51.380;10.326;2024-02-28T04:39:44;2.20;99.90
59881;DHT22;45751;51.380;10.326;2024-02-28T04:42:10;2.20;99.90
59881;DHT22;45751;51.380;10.326;2024-02-28T04:44:36;2.20;99.90
59881;DHT22;45751;51.380;10.326;2024-02-28T04:47:02;2.10;99.90
59881;DHT22;45751;51.380;10.326;2024-02-28T04:49:28;2.10;99.90
59881;DHT22;45751;51.380;10.326;2024-02-28T04:51:54;2.10;99.90
59881;DHT22;45751;51.380;10.326;2024-02-28T04:54:19;2.10;99.90
59881;DHT22;45751;51.380;10.326;2024-02-28T04:56:45;2.00;99.90
59881;DHT22;45751;51.380;10.326;2024-02-28T04:59:12;1.90;99.90
59881;DHT22;45751;51.380;10.326;2024-02-28T05:01:38;2.00;99.90
59881;DHT22;45751;51.380;10.326;2024-02-28T05:04:08;1.90;99.90
59881;DHT22;45751;51.380;10.326;2024-02-28T05:06:34;2.00;99.90
59881;DHT22;45751;51.380;10.326;2024-02-28T05:09:00;1.90;99.90
59881;DHT22;45751;51.380;10.326;2024-02-28T05:11:26;1.90;99.90
59881;DHT22;45751;51.380;10.326;2024-02-28T05:13:52;1.90;99.90
59881;DHT22;45751;51.380;10.326;2024-02-28T05:16:17;1.90;99.90
59881;DHT22;45751;51.380;10.326;2024-02-28T05:18:46;1.90;99.90
59881;DHT22;45751;51.380;10.326;2024-02-28T05:21:13;1.90;99.90
59881;DHT22;45751;51.380;10.326;2024-02-28T05:23:40;2.00;99.90
59881;DHT22;45751;51.380;10.326;2024-02-28T05:26:06;1.90;99.90
59881;DHT22;45751;51.380;10.326;2024-02-28T05:28:35;1.90;99.90
59881;DHT22;45751;51.380;10.326;2024-02-28T05:31:31;1.90;99.90
59881;DHT22;45751;51.380;10.326;2024-02-28T05:33:58;1.80;99.90
59881;DHT22;45751;51.380;10.326;2024-02-28T05:36:26;1.80;99.90
59881;DHT22;45751;51.380;10.326;2024-02-28T05:38:53;1.80;99.90
59881;DHT22;45751;51.380;10.326;2024-02-28T05:41:19;1.80;99.90
59881;DHT22;45751;51.380;10.326;2024-02-28T05:43:46;1.80;99.90
59881;DHT22;45751;51.380;10.326;2024-02-28T05:46:13;1.80;99.90
59881;DHT22;45751;51.380;10.326;2024-02-28T05:48:40;1.70;99.90
59881;DHT22;45751;51.380;10.326;2024-02-28T05:51:06;1.70;99.90
59881;DHT22;45751;51.380;10.326;2024-02-28T05:53:32;1.80;99.90
59881;DHT22;45751;51.380;10.326;2024-02-28T05:56:02;1.80;99.90
59881;DHT22;45751;51.380;10.326;2024-02-28T05:58:28;1.80;99.90
59881;DHT22;45751;51.380;10.326;2024-02-28T06:00:54;1.70;99.90
59881;DHT22;45751;51.380;10.326;2024-02-28T06:03:19;1.70;99.90
59881;DHT22;45751;51.380;10.326;2024-02-28T06:05:45;1.70;99.90
59881;DHT22;45751;51.380;10.326;2024-02-28T06:08:12;1.70;99.90
59881;DHT22;45751;51.380;10.326;2024-02-28T06:10:38;1.70;99.90
59881;DHT22;45751;51.380;10.326;2024-02-28T06:13:04;1.70;99.90
59881;DHT22;45751;51.380;10.326;2024-02-28T06:15:30;1.70;99.90
59881;DHT22;45751;51.380;10.326;2024-02-28T06:17:59;1.70;99.90
59881;DHT22;45751;51.380;10.326;2024-02-28T06:20:28;1.70;99.90
59881;DHT22;45751;51.380;10.326;2024-02-28T06:22:54;1.80;99.90
59881;DHT22;45751;51.380;10.326;2024-02-28T06:25:19;1.70;99.90
59881;DHT22;45751;51.380;10.326;2024-02-28T06:27:48;1.60;99.90
59881;DHT22;45751;51.380;10.326;2024-02-28T06:30:14;1.60;99.90
59881;DHT22;45751;51.380;10.326;2024-02-28T06:32:40;1.60;99.90
59881;DHT22;45751;51.380;10.326;2024-02-28T06:35:07;1.60;99.90
59881;DHT22;45751;51.380;10.326;2024-02-28T06:37:33;1.60;99.90
59881;DHT22;45751;51.380;10.326;2024-02-28T06:39:59;1.60;99.90
59881;DHT22;45751;51.380;10.326;2024-02-28T06:42:25;1.60;99.90
59881;DHT22;45751;51.380;10.326;2024-02-28T06:44:51;1.70;99.90
59881;DHT22;45751;51.380;10.326;2024-02-28T06:47:17;1.60;99.90
59881;DHT22;45751;51.380;10.326;2024-02-28T06:49:44;1.50;99.90
59881;DHT22;45751;51.380;10.326;2024-02-28T06:52:10;1.50;99.90
59881;DHT22;45751;51.380;10.326;2024-02-28T06:54:35;1.50;99.90
59881;DHT22;45751;51.380;10.326;2024-02-28T06:57:01;1.50;99.90
59881;DHT22;45751;51.380;10.326;2024-02-28T06:59:28;1.50;99.90
59881;DHT22;45751;51.380;10.326;2024-02-28T07:01:54;1.50;99.90
59881;DHT22;45751;51.380;10.326;2024-02-28T07:04:19;1.60;99.90
59881;DHT22;45751;51.380;10.326;2024-02-28T07:06:45;1.50;99.90
59881;DHT22;45751;51.380;10.326;2024-02-28T07:09:11;1.60;99.90
59881;DHT22;45751;51.380;10.326;2024-02-28T07:11:38;1.60;99.90
59881;DHT22;45751;51.380;10.326;2024-02-28T07:14:04;1.60;99.90
59881;DHT22;45751;51.380;10.326;2024-02-28T07:16:30;1.50;99.90
59881;DHT22;45751;51.380;10.326;2024-02-28T07:18:58;1.60;99.90
59881;DHT22;45751;51.380;10.326;2024-02-28T07:21:24;1.60;99.90
59881;DHT22;45751;51.380;10.326;2024-02-28T07:23:49;1.60;99.90
59881;DHT22;45751;51.380;10.326;2024-02-28T07:26:16;1.50;99.90
59881;DHT22;45751;51.380;10.326;2024-02-28T07:28:42;1.50;99.90
59881;DHT22;45751;51.380;10.326;2024-02-28T07:31:18;1.50;99.90
59881;DHT22;45751;51.380;10.326;2024-02-28T07:33:43;1.50;99.90
59881;DHT22;45751;51.380;10.326;2024-02-28T07:36:09;1.50;99.90
59881;DHT22;45751;51.380;10.326;2024-02-28T07:38:35;1.40;99.90
59881;DHT22;45751;51.380;10.326;2024-02-28T07:41:01;1.50;99.90
59881;DHT22;45751;51.380;10.326;2024-02-28T07:43:28;1.40;99.90
59881;DHT22;45751;51.380;10.326;2024-02-28T07:45:54;1.40;99.90
59881;DHT22;45751;51.380;10.326;2024-02-28T07:48:20;1.50;99.90
59881;DHT22;45751;51.380;10.326;2024-02-28T07:50:46;1.40;99.90
59881;DHT22;45751;51.380;10.326;2024-02-28T07:53:12;1.40;99.90
59881;DHT22;45751;51.380;10.326;2024-02-28T07:55:38;1.30;99.90
59881;DHT22;45751;51.380;10.326;2024-02-28T07:58:04;1.30;99.90
59881;DHT22;45751;51.380;10.326;2024-02-28T08:00:32;1.30;99.90
59881;DHT22;45751;51.380;10.326;2024-02-28T08:02:59;1.30;99.90
59881;DHT22;45751;51.380;10.326;2024-02-28T08:05:25;1.20;99.90
59881;DHT22;45751;51.380;10.326;2024-02-28T08:07:50;1.30;99.90
59881;DHT22;45751;51.380;10.326;2024-02-28T08:10:16;1.20;99.90
59881;DHT22;45751;51.380;10.326;2024-02-28T08:12:42;1.20;99.90
59881;DHT22;45751;51.380;10.326;2024-02-28T08:15:08;1.20;99.90
59881;DHT22;45751;51.380;10.326;2024-02-28T08:17:34;1.20;99.90
59881;DHT22;45751;51.380;10.326;2024-02-28T08:19:59;1.20;99.90
59881;DHT22;45751;51.380;10.326;2024-02-28T08:22:25;1.20;99.90
59881;DHT22;45751;51.380;10.326;2024-02-28T08:24:51;1.10;99.90
59881;DHT22;45751;51.380;10.326;2024-02-28T08:27:17;1.20;99.90
59881;DHT22;45751;51.380;10.326;2024-02-28T08:29:43;1.20;99.90
59881;DHT22;45751;51.380;10.326;2024-02-28T08:32:11;1.20;99.90
59881;DHT22;45751;51.380;10.326;2024-02-28T08:34:37;1.20;99.90
59881;DHT22;45751;51.380;10.326;2024-02-28T08:37:03;1.20;99.90
59881;DHT22;45751;51.380;10.326;2024-02-28T08:39:29;1.20;99.90
59881;DHT22;45751;51.380;10.326;2024-02-28T08:41:54;1.20;99.90
59881;DHT22;45751;51.380;10.326;2024-02-28T08:44:20;1.20;99.90
59881;DHT22;45751;51.380;10.326;2024-02-28T08:46:47;1.30;99.90
59881;DHT22;45751;51.380;10.326;2024-02-28T08:49:14;1.30;99.90
59881;DHT22;45751;51.380;10.326;2024-02-28T08:51:40;1.40;99.90
59881;DHT22;45751;51.380;10.326;2024-02-28T08:54:06;1.30;99.90
59881;DHT22;45751;51.380;10.326;2024-02-28T08:56:32;1.30;99.90
59881;DHT22;45751;51.380;10.326;2024-02-28T08:58:59;1.30;99.90
59881;DHT22;45751;51.380;10.326;2024-02-28T09:01:25;1.30;99.90
59881;DHT22;45751;51.380;10.326;2024-02-28T09:03:50;1.30;99.90
59881;DHT22;45751;51.380;10.326;2024-02-28T09:06:16;1.30;99.90
59881;DHT22;45751;51.380;10.326;2024-02-28T09:08:42;1.20;99.90
59881;DHT22;45751;51.380;10.326;2024-02-28T09:11:08;1.30;99.90
59881;DHT22;45751;51.380;10.326;2024-02-28T09:13:34;1.30;99.90
59881;DHT22;45751;51.380;10.326;2024-02-28T09:16:03;1.40;99.90
59881;DHT22;45751;51.380;10.326;2024-02-28T09:18:29;1.40;99.90
59881;DHT22;45751;51.380;10.326;2024-02-28T09:20:55;1.50;99.90
59881;DHT22;45751;51.380;10.326;2024-02-28T09:23:21;1.50;99.90
59881;DHT22;45751;51.380;10.326;2024-02-28T09:25:47;1.50;99.90
59881;DHT22;45751;51.380;10.326;2024-02-28T09:28:12;1.70;99.90
59881;DHT22;45751;51.380;10.326;2024-02-28T09:30:42;1.60;99.90
59881;DHT22;45751;51.380;10.326;2024-02-28T09:33:08;1.70;99.90
59881;DHT22;45751;51.380;10.326;2024-02-28T09:35:35;1.70;99.90
59881;DHT22;45751;51.380;10.326;2024-02-28T09:38:02;1.80;99.90
59881;DHT22;45751;51.380;10.326;2024-02-28T09:40:28;1.80;99.90
59881;DHT22;45751;51.380;10.326;2024-02-28T09:43:00;1.90;99.90
59881;DHT22;45751;51.380;10.326;2024-02-28T09:45:27;1.90;99.90
59881;DHT22;45751;51.380;10.326;2024-02-28T09:47:59;1.90;99.90
59881;DHT22;45751;51.380;10.326;2024-02-28T09:50:26;1.90;99.90
59881;DHT22;45751;51.380;10.326;2024-02-28T09:52:53;2.00;99.90
59881;DHT22;45751;51.380;10.326;2024-02-28T09:55:20;2.00;99.90
59881;DHT22;45751;51.380;10.326;2024-02-28T09:57:48;2.10;99.90
59881;DHT22;45751;51.380;10.326;2024-02-28T10:00:18;1.90;99.90
59881;DHT22;45751;51.380;10.326;2024-02-28T10:02:47;2.00;99.90
59881;DHT22;45751;51.380;10.326;2024-02-28T10:05:14;2.00;99.90
59881;DHT22;45751;51.380;10.326;2024-02-28T10:07:41;2.00;99.90
59881;DHT22;45751;51.380;10.326;2024-02-28T10:10:07;2.10;99.90
59881;DHT22;45751;51.380;10.326;2024-02-28T10:12:42;2.10;99.90
59881;DHT22;45751;51.380;10.326;2024-02-28T10:15:10;2.10;99.90
59881;DHT22;45751;51.380;10.326;2024-02-28T10:17:36;2.10;99.90
59881;DHT22;45751;51.380;10.326;2024-02-28T10:20:02;2.10;99.90
59881;DHT22;45751;51.380;10.326;2024-02-28T10:22:36;2.10;99.90
59881;DHT22;45751;51.380;10.326;2024-02-28T10:25:03;2.10;99.90
59881;DHT22;45751;51.380;10.326;2024-02-28T10:27:33;2.20;99.90
59881;DHT22;45751;51.380;10.326;2024-02-28T10:30:00;2.20;99.90
59881;DHT22;45751;51.380;10.326;2024-02-28T10:32:31;2.20;99.90
59881;DHT22;45751;51.380;10.326;2024-02-28T10:34:58;2.20;99.90
59881;DHT22;45751;51.380;10.326;2024-02-28T10:37:24;2.30;99.90
59881;DHT22;45751;51.380;10.326;2024-02-28T10:39:52;2.30;99.90
59881;DHT22;45751;51.380;10.326;2024-02-28T10:42:21;2.40;99.90
59881;DHT22;45751;51.380;10.326;2024-02-28T10:44:48;2.40;99.90
59881;DHT22;45751;51.380;10.326;2024-02-28T10:47:17;2.50;99.90
59881;DHT22;45751;51.380;10.326;2024-02-28T10:49:43;2.70;99.90
59881;DHT22;45751;51.380;10.326;2024-02-28T10:52:11;2.60;99.90
59881;DHT22;45751;51.380;10.326;2024-02-28T10:54:40;2.60;99.90
59881;DHT22;45751;51.380;10.326;2024-02-28T10:57:08;2.60;99.90
59881;DHT22;45751;51.380;10.326;2024-02-28T10:59:37;2.70;99.90
59881;DHT22;45751;51.380;10.326;2024-02-28T11:02:03;2.70;99.90
59881;DHT22;45751;51.380;10.326;2024-02-28T11:04:29;2.80;99.90
59881;DHT22;45751;51.380;10.326;2024-02-28T11:06:56;2.70;99.90
59881;DHT22;45751;51.380;10.326;2024-02-28T11:09:23;2.70;99.90
59881;DHT22;45751;51.380;10.326;2024-02-28T11:11:50;2.60;99.90
59881;DHT22;45751;51.380;10.326;2024-02-28T11:14:16;2.70;99.90
59881;DHT22;45751;51.380;10.326;2024-02-28T11:16:42;2.70;99.90
59881;DHT22;45751;51.380;10.326;2024-02-28T11:19:21;2.70;99.90
59881;DHT22;45751;51.380;10.326;2024-02-28T11:21:54;2.70;99.90
59881;DHT22;45751;51.380;10.326;2024-02-28T11:24:24;2.70;99.90
59881;DHT22;45751;51.380;10.326;2024-02-28T11:26:53;2.70;99.90
59881;DHT22;45751;51.380;10.326;2024-02-28T11:29:28;2.70;99.90
59881;DHT22;45751;51.380;10.326;2024-02-28T11:31:54;2.70;99.90
59881;DHT22;45751;51.380;10.326;2024-02-28T11:34:21;2.70;99.90
59881;DHT22;45751;51.380;10.326;2024-02-28T11:36:48;2.70;99.90
59881;DHT22;45751;51.380;10.326;2024-02-28T11:39:14;2.70;99.90
59881;DHT22;45751;51.380;10.326;2024-02-28T11:41:41;2.70;99.90
59881;DHT22;45751;51.380;10.326;2024-02-28T11:44:09;2.70;99.90
59881;DHT22;45751;51.380;10.326;2024-02-28T11:46:35;2.70;99.90
59881;DHT22;45751;51.380;10.326;2024-02-28T11:49:01;2.80;99.90
59881;DHT22;45751;51.380;10.326;2024-02-28T11:51:27;2.90;99.90
59881;DHT22;45751;51.380;10.326;2024-02-28T11:53:53;2.80;99.90
59881;DHT22;45751;51.380;10.326;2024-02-28T11:56:19;2.80;99.90
59881;DHT22;45751;51.380;10.326;2024-02-28T11:58:51;2.90;99.90
59881;DHT22;45751;51.380;10.326;2024-02-28T12:01:17;2.90;99.90
59881;DHT22;45751;51.380;10.326;2024-02-28T12:03:45;3.10;99.90
59881;DHT22;45751;51.380;10.326;2024-02-28T12:06:11;3.20;99.90
59881;DHT22;45751;51.380;10.326;2024-02-28T12:08:37;3.30;99.90
59881;DHT22;45751;51.380;10.326;2024-02-28T12:11:07;3.40;99.90
59881;DHT22;45751;51.380;10.326;2024-02-28T12:13:34;3.40;99.90
59881;DHT22;45751;51.380;10.326;2024-02-28T12:16:01;3.50;99.90
59881;DHT22;45751;51.380;10.326;2024-02-28T12:18:26;3.50;99.90
59881;DHT22;45751;51.380;10.326;2024-02-28T12:20:54;3.60;99.90
59881;DHT22;45751;51.380;10.326;2024-02-28T12:23:19;3.70;99.90
59881;DHT22;45751;51.380;10.326;2024-02-28T12:25:47;3.70;99.90
59881;DHT22;45751;51.380;10.326;2024-02-28T12:28:13;3.80;99.90
59881;DHT22;45751;51.380;10.326;2024-02-28T12:30:41;3.90;99.90
59881;DHT22;45751;51.380;10.326;2024-02-28T12:33:08;4.00;99.90
59881;DHT22;45751;51.380;10.326;2024-02-28T12:35:34;4.00;99.90
59881;DHT22;45751;51.380;10.326;2024-02-28T12:38:00;4.10;99.90
59881;DHT22;45751;51.380;10.326;2024-02-28T12:40:26;4.20;99.90
59881;DHT22;45751;51.380;10.326;2024-02-28T12:42:51;4.40;99.90
59881;DHT22;45751;51.380;10.326;2024-02-28T12:45:17;4.50;99.90
59881;DHT22;45751;51.380;10.326;2024-02-28T12:47:43;4.60;99.90
59881;DHT22;45751;51.380;10.326;2024-02-28T12:50:09;4.60;99.90
59881;DHT22;45751;51.380;10.326;2024-02-28T12:52:35;4.70;99.90
59881;DHT22;45751;51.380;10.326;2024-02-28T12:55:01;4.70;99.90
59881;DHT22;45751;51.380;10.326;2024-02-28T12:57:28;4.90;99.40
59881;DHT22;45751;51.380;10.326;2024-02-28T12:59:54;5.00;99.50
59881;DHT22;45751;51.380;10.326;2024-02-28T13:02:21;5.10;98.60
59881;DHT22;45751;51.380;10.326;2024-02-28T13:04:47;5.20;98.40
59881;DHT22;45751;51.380;10.326;2024-02-28T13:07:14;5.20;97.60
59881;DHT22;45751;51.380;10.326;2024-02-28T13:09:40;5.30;97.30
59881;DHT22;45751;51.380;10.326;2024-02-28T13:12:07;5.40;97.10
59881;DHT22;45751;51.380;10.326;2024-02-28T13:14:33;5.50;97.30
59881;DHT22;45751;51.380;10.326;2024-02-28T13:16:59;5.60;97.20
59881;DHT22;45751;51.380;10.326;2024-02-28T13:19:25;5.70;96.30
59881;DHT22;45751;51.380;10.326;2024-02-28T13:21:51;5.80;95.90
59881;DHT22;45751;51.380;10.326;2024-02-28T13:24:16;6.00;95.30
59881;DHT22;45751;51.380;10.326;2024-02-28T13:26:42;6.10;95.50
59881;DHT22;45751;51.380;10.326;2024-02-28T13:29:08;6.20;94.90
59881;DHT22;45751;51.380;10.326;2024-02-28T13:31:34;6.40;93.80
59881;DHT22;45751;51.380;10.326;2024-02-28T13:34:01;6.50;93.10
59881;DHT22;45751;51.380;10.326;2024-02-28T13:36:29;6.60;92.90
59881;DHT22;45751;51.380;10.326;2024-02-28T13:38:58;6.70;92.60
59881;DHT22;45751;51.380;10.326;2024-02-28T13:41:23;6.70;91.10
59881;DHT22;45751;51.380;10.326;2024-02-28T13:43:49;6.80;90.40
59881;DHT22;45751;51.380;10.326;2024-02-28T13:46:15;6.90;90.10
59881;DHT22;45751;51.380;10.326;2024-02-28T13:48:41;7.00;90.10
59881;DHT22;45751;51.380;10.326;2024-02-28T13:51:06;7.10;90.50
59881;DHT22;45751;51.380;10.326;2024-02-28T13:53:32;7.30;90.30
59881;DHT22;45751;51.380;10.326;2024-02-28T13:55:58;7.40;85.70
59881;DHT22;45751;51.380;10.326;2024-02-28T13:58:24;7.60;83.60
59881;DHT22;45751;51.380;10.326;2024-02-28T14:00:49;7.70;82.80
59881;DHT22;45751;51.380;10.326;2024-02-28T14:03:15;7.80;81.80
59881;DHT22;45751;51.380;10.326;2024-02-28T14:05:41;8.00;81.20
59881;DHT22;45751;51.380;10.326;2024-02-28T14:08:07;8.10;81.70
59881;DHT22;45751;51.380;10.326;2024-02-28T14:10:34;8.30;80.50
59881;DHT22;45751;51.380;10.326;2024-02-28T14:13:00;8.40;79.50
59881;DHT22;45751;51.380;10.326;2024-02-28T14:15:26;8.50;77.00
59881;DHT22;45751;51.380;10.326;2024-02-28T14:17:52;8.60;76.70
59881;DHT22;45751;51.380;10.326;2024-02-28T14:20:18;8.70;77.40
59881;DHT22;45751;51.380;10.326;2024-02-28T14:22:44;8.80;74.20
59881;DHT22;45751;51.380;10.326;2024-02-28T14:25:15;8.90;71.70
59881;DHT22;45751;51.380;10.326;2024-02-28T14:27:44;9.00;71.70
59881;DHT22;45751;51.380;10.326;2024-02-28T14:30:10;9.10;71.20
59881;DHT22;45751;51.380;10.326;2024-02-28T14:32:37;9.10;70.20
59881;DHT22;45751;51.380;10.326;2024-02-28T14:35:07;9.10;69.80
59881;DHT22;45751;51.380;10.326;2024-02-28T14:37:37;9.20;69.80
59881;DHT22;45751;51.380;10.326;2024-02-28T14:40:08;9.40;70.40
59881;DHT22;45751;51.380;10.326;2024-02-28T14:42:37;9.50;68.10
59881;DHT22;45751;51.380;10.326;2024-02-28T14:45:05;9.60;67.60
59881;DHT22;45751;51.380;10.326;2024-02-28T14:47:31;9.70;67.20
59881;DHT22;45751;51.380;10.326;2024-02-28T14:49:58;9.70;66.40
59881;DHT22;45751;51.380;10.326;2024-02-28T14:52:23;9.80;65.70
59881;DHT22;45751;51.380;10.326;2024-02-28T14:54:50;9.90;64.90
59881;DHT22;45751;51.380;10.326;2024-02-28T14:57:16;9.90;65.80
59881;DHT22;45751;51.380;10.326;2024-02-28T14:59:42;9.90;64.20
59881;DHT22;45751;51.380;10.326;2024-02-28T15:02:11;9.90;64.00
59881;DHT22;45751;51.380;10.326;2024-02-28T15:04:37;9.90;64.00
59881;DHT22;45751;51.380;10.326;2024-02-28T15:07:04;9.90;63.80
59881;DHT22;45751;51.380;10.326;2024-02-28T15:09:30;9.90;64.20
59881;DHT22;45751;51.380;10.326;2024-02-28T15:11:56;9.90;63.50
59881;DHT22;45751;51.380;10.326;2024-02-28T15:14:25;9.90;63.00
59881;DHT22;45751;51.380;10.326;2024-02-28T15:16:51;10.00;62.50
59881;DHT22;45751;51.380;10.326;2024-02-28T15:19:19;10.00;62.30
59881;DHT22;45751;51.380;10.326;2024-02-28T15:21:45;10.00;62.00
59881;DHT22;45751;51.380;10.326;2024-02-28T15:24:11;10.00;62.10
59881;DHT22;45751;51.380;10.326;2024-02-28T15:26:39;10.00;62.10